Time;durP1;ratioP1;P1;durP2;ratioP2;P2;SDS_P1;SDS_P2;PMS_P1;PMS_P2;Temp;Humidity;BMP_temperature;BMP_pressure;BME280_temperature;BME280_humidity;BME280_pressure;Samples;Min_cycle;Max_cycle;Signal;HPM_P1;HPM_P2
2021/12/17 00:01:00;;;;;;;42.08;17.80;;;8.40;99.90;;;;;;5019038;28;20049;-29
2021/12/17 00:03:44;;;;;;;52.37;19.00;;;8.40;99.90;;;;;;5004358;28;20042;-29
2021/12/17 00:06:17;;;;;;;43.47;18.57;;;8.40;99.90;;;;;;4999738;28;20037;-29
2021/12/17 00:08:47;;;;;;;44.30;18.37;;;8.40;99.90;;;;;;5017479;28;20041;-29
2021/12/17 00:11:13;;;;;;;52.30;19.77;;;8.40;99.90;;;;;;5024832;28;20527;-29
2021/12/17 00:13:40;;;;;;;48.17;20.13;;;8.50;99.90;;;;;;5023981;28;20167;-29
2021/12/17 00:16:13;;;;;;;51.13;18.83;;;8.40;99.90;;;;;;5024185;28;20034;-30
2021/12/17 00:18:57;;;;;;;46.90;19.57;;;8.60;99.90;;;;;;5017573;28;20052;-29
2021/12/17 00:48:43;;;;;;;22.27;10.20;;;8.30;99.90;;;;;;5019098;28;20539;-29
2021/12/17 00:54:03;;;;;;;13.13;7.63;;;8.30;99.90;;;;;;5023766;28;20147;-29
2021/12/17 00:56:29;;;;;;;15.27;7.30;;;8.30;99.90;;;;;;5012182;28;20041;-29
2021/12/17 00:58:55;;;;;;;15.20;7.67;;;8.30;99.90;;;;;;5020555;28;20046;-29
2021/12/17 01:01:21;;;;;;;14.30;6.80;;;8.40;99.90;;;;;;5024364;28;20045;-29
2021/12/17 01:03:47;;;;;;;12.30;7.37;;;8.40;99.90;;;;;;5023178;28;20060;-29
2021/12/17 01:06:13;;;;;;;14.00;6.73;;;8.30;99.90;;;;;;4996119;28;20042;-29
2021/12/17 01:08:39;;;;;;;16.73;7.33;;;8.50;99.90;;;;;;4997276;28;20437;-29
2021/12/17 01:11:06;;;;;;;16.13;7.33;;;8.30;99.90;;;;;;5023460;28;20551;-29
2021/12/17 01:13:33;;;;;;;14.87;7.63;;;8.30;99.90;;;;;;5023578;28;20037;-29
2021/12/17 01:15:59;;;;;;;15.77;7.43;;;8.30;99.90;;;;;;5024007;28;20049;-29
2021/12/17 01:18:38;;;;;;;17.73;7.57;;;8.30;99.90;;;;;;5008137;28;20120;-29
2021/12/17 01:42:34;;;;;;;7.00;4.70;;;8.30;99.90;;;;;;5027173;28;20076;-29
2021/12/17 01:45:00;;;;;;;10.53;5.00;;;8.30;99.90;;;;;;5025687;28;20439;-29
2021/12/17 01:47:26;;;;;;;8.23;4.03;;;8.20;99.90;;;;;;5009786;28;20148;-29
2021/12/17 02:00:52;;;;;;;9.80;4.10;;;8.20;99.90;;;;;;5027193;28;20518;-29
2021/12/17 02:03:18;;;;;;;8.73;4.73;;;8.20;99.90;;;;;;5024969;28;20045;-29
2021/12/17 02:05:45;;;;;;;12.00;5.20;;;8.20;99.90;;;;;;5011506;28;20516;-29
2021/12/17 02:08:11;;;;;;;10.53;5.60;;;8.20;99.90;;;;;;4989442;28;20037;-29
2021/12/17 02:32:03;;;;;;;9.93;5.53;;;8.20;99.90;;;;;;5025489;28;20477;-29
2021/12/17 02:37:24;;;;;;;9.18;5.70;;;8.10;99.90;;;;;;4996563;28;20091;-29
2021/12/17 02:42:24;;;;;;;10.47;6.03;;;8.10;99.90;;;;;;5006034;28;20077;-29
2021/12/17 02:47:36;;;;;;;10.47;5.80;;;8.20;99.90;;;;;;5009611;28;20048;-29
2021/12/17 02:50:03;;;;;;;11.87;6.83;;;8.10;99.90;;;;;;5026258;28;20037;-29
2021/12/17 02:52:31;;;;;;;15.03;7.03;;;8.10;99.90;;;;;;5025262;28;20079;-29
2021/12/17 02:54:58;;;;;;;17.83;7.53;;;8.30;99.90;;;;;;5026109;28;20088;-29
2021/12/17 02:57:25;;;;;;;14.33;7.37;;;8.10;99.90;;;;;;5010096;28;20464;-29
2021/12/17 02:59:52;;;;;;;13.03;7.57;;;8.10;99.90;;;;;;5025916;28;20084;-29
2021/12/17 03:02:19;;;;;;;16.43;7.77;;;8.10;99.90;;;;;;5025251;28;20419;-29
2021/12/17 03:04:44;;;;;;;15.50;7.63;;;8.10;99.90;;;;;;5018848;28;20041;-29
2021/12/17 03:07:14;;;;;;;13.07;7.43;;;8.10;99.90;;;;;;4989806;28;20046;-29
2021/12/17 03:10:03;;;;;;;13.57;7.50;;;8.10;99.90;;;;;;5023118;28;20096;-29
2021/12/17 03:12:49;;;;;;;16.07;8.07;;;8.10;99.90;;;;;;5022473;28;20052;-29
2021/12/17 03:25:46;;;;;;;15.50;9.13;;;8.10;99.90;;;;;;5021788;28;20374;-29
2021/12/17 03:28:12;;;;;;;16.63;8.93;;;8.10;99.90;;;;;;4989479;28;20057;-29
2021/12/17 03:30:37;;;;;;;14.73;8.70;;;8.10;99.90;;;;;;5004215;28;20077;-29
2021/12/17 03:33:03;;;;;;;18.60;10.27;;;8.10;99.90;;;;;;5004745;28;20425;-29
2021/12/17 03:35:29;;;;;;;15.97;10.17;;;8.10;99.90;;;;;;5004269;28;20038;-29
2021/12/17 03:37:55;;;;;;;18.10;10.93;;;8.10;99.90;;;;;;4989171;28;20077;-29
2021/12/17 03:40:21;;;;;;;17.37;9.83;;;8.10;99.90;;;;;;5004079;28;20081;-29
2021/12/17 03:42:49;;;;;;;16.10;10.10;;;8.10;99.90;;;;;;5004604;28;20567;-29
2021/12/17 03:45:16;;;;;;;17.93;10.40;;;8.10;99.90;;;;;;5005066;28;20371;-28
2021/12/17 03:47:42;;;;;;;18.47;11.00;;;8.10;99.90;;;;;;5006557;28;20343;-28
2021/12/17 03:50:09;;;;;;;20.67;11.67;;;8.10;99.90;;;;;;5025206;28;20076;-29
2021/12/17 03:52:35;;;;;;;19.90;11.50;;;8.10;99.90;;;;;;5023968;28;20751;-29
2021/12/17 03:55:02;;;;;;;18.50;11.50;;;8.10;99.90;;;;;;5025134;28;20033;-29
2021/12/17 03:57:28;;;;;;;20.73;12.33;;;8.10;99.90;;;;;;5007603;28;20053;-29
2021/12/17 03:59:53;;;;;;;18.20;11.57;;;8.20;99.90;;;;;;5024704;28;20179;-29
2021/12/17 04:02:19;;;;;;;17.90;11.03;;;8.10;99.90;;;;;;5022416;28;20099;-29
2021/12/17 04:04:45;;;;;;;16.13;11.40;;;8.10;99.90;;;;;;5015388;28;20042;-29
2021/12/17 04:07:10;;;;;;;21.77;12.03;;;8.10;99.90;;;;;;4988677;28;20373;-28
2021/12/17 04:09:36;;;;;;;17.80;10.80;;;8.20;99.90;;;;;;5009108;28;20128;-28
2021/12/17 04:12:09;;;;;;;17.33;11.13;;;8.10;99.90;;;;;;5024860;28;20041;-29
2021/12/17 04:14:44;;;;;;;17.93;10.87;;;8.20;99.90;;;;;;5024018;28;20050;-29
2021/12/17 04:17:11;;;;;;;17.43;11.20;;;8.10;99.90;;;;;;5008877;28;20087;-29
2021/12/17 04:19:37;;;;;;;18.77;12.13;;;8.10;99.90;;;;;;5024832;28;20103;-29
2021/12/17 04:22:03;;;;;;;19.70;12.33;;;8.10;99.90;;;;;;5024576;28;20053;-29
2021/12/17 04:24:30;;;;;;;18.53;12.03;;;8.10;99.90;;;;;;5023633;28;20052;-29
2021/12/17 04:26:55;;;;;;;21.03;12.77;;;8.10;99.90;;;;;;4998358;28;20554;-29
2021/12/17 04:29:22;;;;;;;18.93;12.20;;;8.10;99.90;;;;;;5019159;28;20070;-29
2021/12/17 04:31:53;;;;;;;21.80;12.63;;;8.10;99.90;;;;;;5005235;28;20116;-29
2021/12/17 04:34:20;;;;;;;21.35;13.50;;;8.10;99.90;;;;;;5002090;28;20069;-29
2021/12/17 04:36:49;;;;;;;20.93;12.93;;;8.10;99.90;;;;;;4991217;28;20109;-29
2021/12/17 04:39:17;;;;;;;26.80;14.17;;;8.20;99.90;;;;;;5002830;28;20042;-29
2021/12/17 04:42:00;;;;;;;21.80;13.23;;;8.20;99.90;;;;;;5004768;28;20050;-29
2021/12/17 04:44:32;;;;;;;23.93;13.77;;;8.20;99.90;;;;;;5021768;28;20037;-29
2021/12/17 04:57:38;;;;;;;25.47;13.43;;;8.10;99.90;;;;;;5012023;28;20138;-29
2021/12/17 05:00:08;;;;;;;26.33;14.17;;;8.10;99.90;;;;;;5028172;28;20057;-29
2021/12/17 05:02:41;;;;;;;22.43;12.87;;;8.10;99.90;;;;;;5027514;28;20445;-29
2021/12/17 05:05:09;;;;;;;27.83;13.67;;;8.10;99.90;;;;;;5015964;28;20428;-29
2021/12/17 05:07:38;;;;;;;24.83;13.97;;;8.10;99.90;;;;;;4990401;28;20041;-29
2021/12/17 05:10:19;;;;;;;31.57;14.23;;;8.10;99.90;;;;;;5026093;28;20120;-28
2021/12/17 05:18:22;;;;;;;26.20;12.97;;;8.10;99.90;;;;;;5010552;28;20072;-29
2021/12/17 05:20:52;;;;;;;27.87;13.87;;;8.10;99.90;;;;;;5027987;28;20112;-29
2021/12/17 05:23:23;;;;;;;24.50;12.70;;;8.10;99.90;;;;;;5026852;28;20397;-29
2021/12/17 05:25:50;;;;;;;29.50;14.05;;;8.10;99.90;;;;;;5021983;28;20080;-29
2021/12/17 05:28:15;;;;;;;26.13;13.23;;;8.10;99.90;;;;;;4990320;28;20149;-29
2021/12/17 05:30:46;;;;;;;26.97;13.00;;;8.10;99.90;;;;;;5023579;28;20037;-29
2021/12/17 05:33:13;;;;;;;30.23;12.77;;;8.20;99.90;;;;;;5026750;28;20103;-29
2021/12/17 05:35:38;;;;;;;26.83;13.57;;;8.10;99.90;;;;;;5027158;28;20041;-28
2021/12/17 05:38:04;;;;;;;32.80;14.50;;;8.10;99.90;;;;;;4992077;28;20044;-29
2021/12/17 05:40:30;;;;;;;25.27;12.40;;;8.10;99.90;;;;;;5008074;28;20096;-29
2021/12/17 05:42:59;;;;;;;28.63;13.17;;;8.10;99.90;;;;;;5005639;28;20050;-29
2021/12/17 05:45:48;;;;;;;30.83;13.50;;;8.10;99.90;;;;;;5025095;28;20099;-29
2021/12/17 05:48:16;;;;;;;28.07;12.70;;;8.00;99.90;;;;;;5010913;28;20571;-29
2021/12/17 05:50:43;;;;;;;27.63;13.17;;;8.10;99.90;;;;;;5025868;28;20526;-29
2021/12/17 05:53:09;;;;;;;29.83;13.50;;;8.10;99.90;;;;;;5026480;28;20128;-29
2021/12/17 05:55:36;;;;;;;34.43;14.30;;;8.10;99.90;;;;;;5027011;28;20072;-29
2021/12/17 05:58:07;;;;;;;31.53;13.03;;;8.10;99.90;;;;;;5001555;28;20038;-29
2021/12/17 06:00:34;;;;;;;38.13;14.43;;;8.10;99.90;;;;;;5005102;28;20647;-29
2021/12/17 06:03:00;;;;;;;29.73;12.90;;;8.10;99.90;;;;;;5004870;28;20053;-29
2021/12/17 06:05:27;;;;;;;34.03;13.87;;;8.10;99.90;;;;;;4992208;28;20493;-29
2021/12/17 06:07:53;;;;;;;30.27;13.40;;;8.10;99.90;;;;;;4971346;28;20074;-29
2021/12/17 06:10:19;;;;;;;30.20;13.07;;;8.10;99.90;;;;;;4998783;28;20103;-29
2021/12/17 06:12:45;;;;;;;29.83;13.27;;;8.10;99.90;;;;;;5006375;28;20053;-28
2021/12/17 06:15:14;;;;;;;29.63;13.33;;;8.20;99.90;;;;;;5006312;28;20504;-28
2021/12/17 06:17:40;;;;;;;30.13;13.13;;;8.10;99.90;;;;;;4959208;28;20041;-30
2021/12/17 06:20:08;;;;;;;27.60;12.43;;;8.10;99.90;;;;;;4988961;28;20050;-29
2021/12/17 06:22:35;;;;;;;28.67;11.67;;;8.10;99.90;;;;;;4987522;28;20452;-29
2021/12/17 06:25:02;;;;;;;27.67;12.00;;;8.20;99.90;;;;;;4986523;28;20093;-29
2021/12/17 06:27:28;;;;;;;24.93;12.03;;;8.10;99.90;;;;;;4972893;28;20137;-29
2021/12/17 06:29:54;;;;;;;23.07;11.93;;;8.10;99.90;;;;;;4983716;28;20057;-29
2021/12/17 06:32:21;;;;;;;28.13;12.03;;;8.10;99.90;;;;;;4985318;28;20046;-29
2021/12/17 06:34:48;;;;;;;28.97;12.03;;;8.10;99.90;;;;;;4984879;28;20047;-29
2021/12/17 06:37:17;;;;;;;26.03;11.67;;;8.10;99.90;;;;;;4972570;28;20105;-29
2021/12/17 06:39:43;;;;;;;24.57;11.20;;;8.10;99.90;;;;;;4987146;28;20038;-29
2021/12/17 06:42:10;;;;;;;21.77;10.43;;;8.10;99.90;;;;;;4985007;28;20058;-29
2021/12/17 06:44:37;;;;;;;21.20;10.43;;;8.10;99.90;;;;;;4986332;28;20132;-29
2021/12/17 06:47:11;;;;;;;21.40;10.13;;;8.10;99.90;;;;;;4971917;28;20038;-29
2021/12/17 07:10:50;;;;;;;22.23;10.23;;;8.10;99.90;;;;;;4985676;28;20054;-29
2021/12/17 07:24:36;;;;;;;21.03;10.70;;;8.10;99.90;;;;;;4986731;28;20053;-29
2021/12/17 07:32:31;;;;;;;21.80;10.93;;;8.10;99.90;;;;;;4991690;28;20057;-29
2021/12/17 07:39:48;;;;;;;21.07;11.63;;;8.10;99.90;;;;;;5007176;28;20135;-29
2021/12/17 07:42:14;;;;;;;19.70;10.50;;;8.10;99.90;;;;;;5000928;28;20077;-29
2021/12/17 07:44:40;;;;;;;21.43;11.40;;;8.10;99.90;;;;;;5012562;28;20602;-29
2021/12/17 07:47:05;;;;;;;21.83;11.70;;;8.10;99.90;;;;;;4997155;28;20053;-29
2021/12/17 07:49:31;;;;;;;20.33;11.53;;;8.10;99.90;;;;;;5001626;28;20417;-30
2021/12/17 07:51:57;;;;;;;19.73;10.93;;;8.10;99.90;;;;;;5003950;28;20061;-29
2021/12/17 07:54:22;;;;;;;70.27;15.80;;;8.30;99.90;;;;;;5002503;28;20123;-29
2021/12/17 07:56:48;;;;;;;49.63;15.27;;;8.10;99.90;;;;;;4998284;28;20583;-29
2021/12/17 07:59:14;;;;;;;37.47;13.03;;;8.10;99.90;;;;;;4994942;28;21541;-29
2021/12/17 08:01:40;;;;;;;26.73;12.17;;;8.10;99.90;;;;;;5009379;28;20050;-29
2021/12/17 08:04:08;;;;;;;25.23;12.90;;;8.10;99.90;;;;;;5002495;28;20046;-29
2021/12/17 08:06:35;;;;;;;21.43;12.17;;;8.20;99.90;;;;;;4993037;28;20068;-29
2021/12/17 08:09:03;;;;;;;20.43;11.73;;;8.20;99.90;;;;;;5000707;28;20053;-29
2021/12/17 08:11:28;;;;;;;23.77;12.37;;;8.20;99.90;;;;;;5006525;28;20041;-29
2021/12/17 08:13:56;;;;;;;26.23;13.03;;;8.20;99.90;;;;;;5004830;28;20508;-29
2021/12/17 08:27:11;;;;;;;26.00;13.23;;;8.30;99.90;;;;;;4994760;28;20147;-29
2021/12/17 08:32:29;;;;;;;28.00;13.33;;;8.20;99.90;;;;;;5005680;28;20389;-29
2021/12/17 08:34:54;;;;;;;25.13;13.57;;;8.20;99.90;;;;;;5010267;28;20405;-28
2021/12/17 08:37:20;;;;;;;29.30;13.17;;;8.20;99.90;;;;;;4995256;28;20050;-29
2021/12/17 08:39:45;;;;;;;31.60;13.40;;;8.20;99.90;;;;;;5012545;28;20424;-28
2021/12/17 08:42:11;;;;;;;25.60;13.53;;;8.20;99.90;;;;;;5010391;28;20477;-29
2021/12/17 08:44:37;;;;;;;24.37;13.27;;;8.20;99.90;;;;;;5008958;28;20148;-29
2021/12/17 08:47:03;;;;;;;25.77;13.23;;;8.20;99.90;;;;;;4994035;28;20493;-29
2021/12/17 08:49:29;;;;;;;27.37;12.77;;;8.20;99.90;;;;;;5007913;28;20049;-29
2021/12/17 08:51:54;;;;;;;24.90;12.43;;;8.30;99.90;;;;;;5006163;28;20489;-29
2021/12/17 08:54:20;;;;;;;29.00;12.70;;;8.30;99.90;;;;;;5009664;28;20348;-29
2021/12/17 08:56:49;;;;;;;23.70;12.03;;;8.30;99.90;;;;;;4995205;28;20053;-29
2021/12/17 08:59:16;;;;;;;21.37;10.73;;;8.30;99.90;;;;;;5005126;28;20049;-29
2021/12/17 09:01:44;;;;;;;22.20;12.00;;;8.30;99.90;;;;;;5011349;28;20521;-29
2021/12/17 09:04:10;;;;;;;24.07;12.53;;;8.30;99.90;;;;;;5011344;28;20045;-29
2021/12/17 09:06:36;;;;;;;22.40;12.00;;;8.30;99.90;;;;;;4993221;28;20466;-29
2021/12/17 09:09:03;;;;;;;21.73;11.90;;;8.30;99.90;;;;;;5003024;28;20505;-29
2021/12/17 09:11:29;;;;;;;23.27;11.53;;;8.30;99.90;;;;;;5008373;28;20524;-29
2021/12/17 09:13:58;;;;;;;23.67;11.30;;;8.40;99.90;;;;;;5011658;28;20505;-29
2021/12/17 09:16:24;;;;;;;46.63;13.47;;;8.40;99.90;;;;;;4998781;28;20060;-30
2021/12/17 09:18:52;;;;;;;44.17;13.23;;;8.40;99.90;;;;;;5006791;28;20045;-31
2021/12/17 09:21:18;;;;;;;30.97;11.57;;;8.40;99.90;;;;;;5011816;28;20051;-31
2021/12/17 09:23:45;;;;;;;35.83;12.60;;;8.40;99.90;;;;;;5008202;28;20054;-32
2021/12/17 09:26:12;;;;;;;25.63;11.17;;;8.40;99.90;;;;;;5005567;28;20092;-32
2021/12/17 09:28:38;;;;;;;65.20;13.00;;;8.40;99.90;;;;;;5008897;28;20153;-31
2021/12/17 09:31:05;;;;;;;86.50;17.03;;;8.40;99.90;;;;;;5016513;28;20041;-32
2021/12/17 09:33:32;;;;;;;79.83;15.97;;;8.60;99.90;;;;;;5009165;28;20286;-32
2021/12/17 09:35:58;;;;;;;60.03;13.03;;;8.50;99.90;;;;;;5010318;28;20464;-29
2021/12/17 09:38:24;;;;;;;34.47;11.93;;;8.50;99.90;;;;;;4992065;28;20049;-28
2021/12/17 09:40:50;;;;;;;36.83;11.90;;;8.50;99.90;;;;;;5009870;28;20552;-29
2021/12/17 09:43:16;;;;;;;29.83;11.17;;;8.50;99.90;;;;;;5009843;28;20083;-29
2021/12/17 09:45:42;;;;;;;27.10;11.53;;;8.50;99.90;;;;;;5011788;28;20162;-29
2021/12/17 09:48:08;;;;;;;22.80;10.50;;;8.60;99.90;;;;;;4995520;28;20111;-30
2021/12/17 09:50:34;;;;;;;23.20;10.93;;;8.60;99.90;;;;;;5009416;28;20081;-29
2021/12/17 09:52:59;;;;;;;26.93;10.23;;;8.60;99.90;;;;;;5011049;28;20497;-29
2021/12/17 09:55:25;;;;;;;21.50;9.93;;;8.60;99.90;;;;;;5010218;28;20067;-29
2021/12/17 09:57:52;;;;;;;20.07;10.03;;;8.60;99.90;;;;;;4995477;28;20077;-29
2021/12/17 10:00:20;;;;;;;20.80;9.40;;;8.60;99.90;;;;;;5015730;28;20049;-29
2021/12/17 10:02:48;;;;;;;23.33;9.73;;;8.60;99.90;;;;;;5009825;28;20045;-29
2021/12/17 10:05:23;;;;;;;21.57;9.57;;;8.60;99.90;;;;;;5010879;28;20420;-29
2021/12/17 10:08:02;;;;;;;20.70;10.30;;;8.60;99.90;;;;;;4994433;28;20073;-30
2021/12/17 10:10:37;;;;;;;21.57;10.07;;;8.60;99.90;;;;;;5010351;28;20542;-29
2021/12/17 10:13:23;;;;;;;19.53;9.90;;;8.60;99.90;;;;;;5007499;28;20133;-29
2021/12/17 10:15:58;;;;;;;17.23;8.57;;;8.60;99.90;;;;;;5011355;28;20050;-31
2021/12/17 10:18:35;;;;;;;18.13;9.23;;;8.70;99.90;;;;;;4994336;28;20050;-31
2021/12/17 10:21:05;;;;;;;22.30;9.93;;;8.70;99.90;;;;;;5010914;28;20577;-31
2021/12/17 10:23:32;;;;;;;20.20;9.77;;;8.70;99.90;;;;;;5008361;28;20049;-32
2021/12/17 10:25:59;;;;;;;17.73;8.83;;;8.80;99.90;;;;;;5016518;28;20061;-32
2021/12/17 10:28:25;;;;;;;16.80;8.83;;;8.70;99.90;;;;;;4996605;28;20535;-32
2021/12/17 10:30:53;;;;;;;20.57;8.47;;;8.70;99.90;;;;;;5011960;28;20087;-31
2021/12/17 10:33:25;;;;;;;14.33;8.70;;;8.80;99.90;;;;;;5008739;28;20041;-31
2021/12/17 10:35:53;;;;;;;17.33;8.70;;;8.80;99.90;;;;;;5011283;28;20286;-32
2021/12/17 10:38:23;;;;;;;15.63;7.70;;;8.80;99.90;;;;;;4994343;28;20136;-31
2021/12/17 10:40:57;;;;;;;17.27;8.23;;;8.70;99.90;;;;;;5020744;28;20045;-32
2021/12/17 10:43:32;;;;;;;19.40;9.30;;;8.80;99.90;;;;;;5010965;28;20058;-31
2021/12/17 10:46:07;;;;;;;14.40;8.40;;;8.80;99.90;;;;;;5008422;28;20069;-31
2021/12/17 10:51:28;;;;;;;17.30;8.17;;;8.80;99.90;;;;;;5011246;28;20090;-32
2021/12/17 10:53:56;;;;;;;13.93;7.73;;;8.90;99.90;;;;;;5010726;28;20123;-31
2021/12/17 10:56:43;;;;;;;13.10;7.37;;;8.90;99.90;;;;;;4996122;28;20572;-32
2021/12/17 10:59:13;;;;;;;16.93;7.97;;;8.90;99.90;;;;;;5009907;28;20041;-32
2021/12/17 11:01:44;;;;;;;15.43;7.57;;;8.90;99.90;;;;;;5010651;28;20045;-32
2021/12/17 11:04:18;;;;;;;12.32;6.55;;;8.90;99.90;;;;;;5011178;28;20044;-32
2021/12/17 11:06:48;;;;;;;11.87;6.67;;;8.90;99.90;;;;;;4993979;28;20327;-32
2021/12/17 11:09:49;;;;;;;10.87;6.93;;;8.90;99.90;;;;;;5012331;28;20052;-32
2021/12/17 11:12:23;;;;;;;11.35;6.15;;;9.00;99.90;;;;;;5009703;28;20114;-31
2021/12/17 11:14:49;;;;;;;10.93;6.37;;;9.00;99.90;;;;;;5009112;28;20062;-31
2021/12/17 11:17:17;;;;;;;11.37;7.27;;;9.00;99.90;;;;;;4995945;28;20034;-31
2021/12/17 11:19:44;;;;;;;11.97;6.67;;;9.00;99.90;;;;;;5010549;28;20050;-29
2021/12/17 11:22:10;;;;;;;13.77;7.30;;;9.00;99.90;;;;;;5011879;28;20546;-29
2021/12/17 11:24:37;;;;;;;9.50;6.23;;;9.00;99.90;;;;;;5012124;28;20520;-29
2021/12/17 11:27:05;;;;;;;10.80;6.30;;;9.10;99.90;;;;;;4997396;28;20053;-29
2021/12/17 11:29:31;;;;;;;10.83;5.77;;;9.10;99.90;;;;;;5009350;28;20331;-30
2021/12/17 11:32:00;;;;;;;8.37;5.67;;;9.10;99.90;;;;;;5007355;28;20137;-29
2021/12/17 11:34:27;;;;;;;8.03;5.97;;;9.10;99.90;;;;;;5011732;28;20350;-29
2021/12/17 11:36:54;;;;;;;8.23;6.43;;;9.10;99.90;;;;;;4998803;28;20050;-29
2021/12/17 11:39:26;;;;;;;8.67;5.77;;;9.10;99.90;;;;;;5015200;28;20064;-28
2021/12/17 11:42:24;;;;;;;11.67;6.00;;;9.10;99.90;;;;;;5009443;28;20468;-30
2021/12/17 11:45:23;;;;;;;10.87;6.40;;;9.10;99.90;;;;;;5011194;28;20148;-29
2021/12/17 11:47:41;;;;;;;7.70;5.63;;;9.10;99.90;;;;;;4998651;28;20041;-29
2021/12/17 11:50:10;;;;;;;10.43;6.23;;;9.20;99.90;;;;;;5017151;28;20057;-29
2021/12/17 11:52:52;;;;;;;10.00;6.47;;;9.10;99.90;;;;;;5030383;28;20153;-29
2021/12/17 11:55:30;;;;;;;10.33;5.97;;;9.20;99.90;;;;;;5007038;28;20391;-29
2021/12/17 11:57:59;;;;;;;14.93;6.63;;;9.20;99.90;;;;;;4990816;28;20045;-29
2021/12/17 12:00:47;;;;;;;9.23;6.27;;;9.20;99.90;;;;;;5011067;28;20099;-29
2021/12/17 12:03:21;;;;;;;10.47;6.00;;;9.20;99.90;;;;;;5008748;28;20050;-29
2021/12/17 12:05:52;;;;;;;12.63;6.40;;;9.20;99.90;;;;;;5013630;28;20500;-29
2021/12/17 12:08:50;;;;;;;9.68;6.03;;;9.20;99.90;;;;;;4998935;28;20404;-29
2021/12/17 12:11:26;;;;;;;10.90;6.60;;;9.20;99.90;;;;;;5006629;28;20071;-29
2021/12/17 12:13:54;;;;;;;9.13;6.50;;;9.20;99.90;;;;;;5008146;28;20506;-29
2021/12/17 12:16:24;;;;;;;9.57;6.93;;;9.20;99.90;;;;;;4997850;28;20045;-29
2021/12/17 12:18:52;;;;;;;9.47;6.43;;;9.20;99.90;;;;;;5002948;28;20555;-29
2021/12/17 12:21:20;;;;;;;8.37;6.13;;;9.20;99.90;;;;;;5010668;28;20030;-29
2021/12/17 12:24:09;;;;;;;10.07;6.60;;;9.20;99.90;;;;;;5008642;28;20828;-29
2021/12/17 12:26:40;;;;;;;8.80;6.20;;;9.20;99.90;;;;;;4998065;28;20487;-29
2021/12/17 12:29:26;;;;;;;10.40;6.32;;;9.20;99.90;;;;;;5011132;28;20146;-29
2021/12/17 12:31:56;;;;;;;8.90;6.07;;;9.30;99.90;;;;;;5008616;28;20080;-29
2021/12/17 12:34:29;;;;;;;11.00;6.73;;;9.30;99.90;;;;;;5012611;28;20052;-29
2021/12/17 12:37:07;;;;;;;10.13;6.83;;;9.30;99.90;;;;;;4993264;28;20453;-29
2021/12/17 12:39:50;;;;;;;9.30;7.07;;;9.30;99.90;;;;;;5008390;28;20443;-29
2021/12/17 12:42:23;;;;;;;9.70;6.87;;;9.30;99.90;;;;;;5006987;28;20513;-29
2021/12/17 12:44:49;;;;;;;7.97;6.53;;;9.30;99.90;;;;;;5004881;28;20538;-29
2021/12/17 12:47:23;;;;;;;10.70;7.03;;;9.30;99.90;;;;;;4991802;28;20505;-29
2021/12/17 12:49:56;;;;;;;10.43;7.13;;;9.30;99.90;;;;;;5007557;28;20053;-29
2021/12/17 12:52:36;;;;;;;8.83;6.33;;;9.30;99.90;;;;;;5007705;28;20057;-29
2021/12/17 12:55:14;;;;;;;7.43;5.70;;;9.30;99.90;;;;;;5011937;28;20049;-29
2021/12/17 12:57:51;;;;;;;7.03;5.53;;;9.30;99.90;;;;;;4991355;28;20057;-30
2021/12/17 13:00:35;;;;;;;8.00;6.40;;;9.30;99.90;;;;;;5008929;28;20029;-29
2021/12/17 13:03:05;;;;;;;6.77;6.07;;;9.30;99.90;;;;;;5009802;28;20185;-29
2021/12/17 13:05:32;;;;;;;7.40;5.90;;;9.30;99.90;;;;;;5014606;28;20048;-29
2021/12/17 13:08:01;;;;;;;6.90;5.13;;;9.40;99.90;;;;;;4994474;28;20058;-29
2021/12/17 13:10:28;;;;;;;7.20;5.87;;;9.30;99.90;;;;;;5006795;28;20124;-30
2021/12/17 13:24:12;;;;;;;8.73;5.70;;;9.40;99.90;;;;;;5013878;28;20049;-29
2021/12/17 13:26:39;;;;;;;;;;;9.40;99.90;;;;;;4996117;28;20061;-29
2021/12/17 13:29:12;;;;;;;7.60;5.70;;;9.40;99.90;;;;;;5007314;28;19929;-29
2021/12/17 13:31:56;;;;;;;7.57;5.97;;;9.40;99.90;;;;;;5013866;28;20042;-29
2021/12/17 13:34:29;;;;;;;8.73;5.97;;;9.40;99.90;;;;;;5016419;28;20501;-29
2021/12/17 13:37:15;;;;;;;10.23;6.20;;;9.40;99.90;;;;;;4998122;28;20061;-29
2021/12/17 13:39:42;;;;;;;8.07;5.73;;;9.40;99.90;;;;;;5018040;28;20049;-30
2021/12/17 13:42:12;;;;;;;7.63;6.13;;;9.40;99.90;;;;;;5015472;28;20053;-30
2021/12/17 13:44:43;;;;;;;7.20;5.33;;;9.50;99.90;;;;;;5015484;28;20056;-30
2021/12/17 13:47:18;;;;;;;6.53;5.30;;;9.40;99.90;;;;;;4998856;28;20053;-29
2021/12/17 13:49:48;;;;;;;7.07;5.67;;;9.50;99.90;;;;;;5019501;28;20196;-29
2021/12/17 13:52:14;;;;;;;7.40;5.60;;;9.60;99.90;;;;;;5018055;28;20091;-29
2021/12/17 13:54:40;;;;;;;7.43;4.67;;;9.40;99.90;;;;;;5017780;28;20044;-29
2021/12/17 13:57:07;;;;;;;7.00;5.07;;;9.50;99.90;;;;;;5005835;28;20045;-29
2021/12/17 13:59:35;;;;;;;7.77;5.47;;;9.50;99.90;;;;;;5016525;28;20412;-29
2021/12/17 14:02:16;;;;;;;6.33;5.20;;;9.40;99.90;;;;;;5019788;28;20045;-29
2021/12/17 14:04:56;;;;;;;7.65;5.05;;;9.50;99.90;;;;;;5016213;28;20048;-30
2021/12/17 14:07:27;;;;;;;7.20;5.23;;;9.40;99.90;;;;;;5006084;28;20033;-29
2021/12/17 14:09:59;;;;;;;8.93;4.90;;;9.40;99.90;;;;;;5018172;28;20617;-29
2021/12/17 14:12:37;;;;;;;7.65;5.60;;;9.50;99.90;;;;;;5015015;28;20099;-29
2021/12/17 14:15:08;;;;;;;6.20;5.20;;;9.50;99.90;;;;;;5017382;28;20056;-30
2021/12/17 14:17:37;;;;;;;6.93;5.00;;;9.50;99.90;;;;;;5004516;28;20065;-29
2021/12/17 14:20:11;;;;;;;5.87;5.03;;;9.50;99.90;;;;;;5019023;28;20091;-29
2021/12/17 14:22:41;;;;;;;6.40;4.90;;;9.50;99.90;;;;;;5020335;28;20065;-29
2021/12/17 14:25:26;;;;;;;5.47;4.97;;;9.50;99.90;;;;;;5018039;28;20115;-29
2021/12/17 14:27:53;;;;;;;5.70;4.73;;;9.50;99.90;;;;;;5001746;28;20088;-29
2021/12/17 14:30:33;;;;;;;7.07;5.27;;;9.40;99.90;;;;;;5019079;28;20400;-30
2021/12/17 14:33:09;;;;;;;8.37;5.47;;;9.40;99.90;;;;;;5015906;28;20052;-29
2021/12/17 14:35:58;;;;;;;5.53;4.77;;;9.40;99.90;;;;;;4962564;28;20071;-29
2021/12/17 14:38:37;;;;;;;7.80;5.00;;;9.50;99.90;;;;;;5001699;28;20052;-30
2021/12/17 14:41:04;;;;;;;8.20;5.30;;;9.50;99.90;;;;;;5013876;28;20209;-29
2021/12/17 14:43:40;;;;;;;6.83;4.90;;;9.50;99.90;;;;;;5015600;28;20045;-29
2021/12/17 14:57:15;;;;;;;6.10;4.30;;;9.50;99.90;;;;;;5001952;28;20050;-29
2021/12/17 15:03:51;;;;;;;6.27;4.50;;;9.40;99.90;;;;;;5013478;28;21065;-29
2021/12/17 15:05:54;;;;;;;7.07;4.80;;;9.40;99.90;;;;;;5008599;28;20045;-30
2021/12/17 15:08:20;;;;;;;8.43;5.10;;;9.40;99.90;;;;;;4996028;28;20065;-29
2021/12/17 15:10:46;;;;;;;6.70;4.80;;;9.40;99.90;;;;;;5013138;28;20477;-29
2021/12/17 15:13:12;;;;;;;9.13;5.00;;;9.30;99.90;;;;;;5015582;28;20050;-29
2021/12/17 15:15:39;;;;;;;8.80;5.03;;;9.40;99.90;;;;;;5013258;28;20045;-29
2021/12/17 15:18:10;;;;;;;8.03;5.20;;;9.40;99.90;;;;;;5000466;28;20041;-29
2021/12/17 15:20:36;;;;;;;7.17;5.47;;;9.40;99.90;;;;;;5015414;28;20046;-29
2021/12/17 15:23:04;;;;;;;8.87;5.20;;;9.40;99.90;;;;;;5015282;28;20056;-29
2021/12/17 15:25:32;;;;;;;7.83;5.37;;;9.30;99.90;;;;;;5014962;28;20081;-30
2021/12/17 15:27:58;;;;;;;10.70;5.50;;;9.30;99.90;;;;;;4998606;28;20053;-30
2021/12/17 15:30:27;;;;;;;7.53;5.67;;;9.30;99.90;;;;;;5015719;28;20798;-29
2021/12/17 15:32:54;;;;;;;10.53;7.10;;;9.30;99.90;;;;;;5012924;28;20052;-29
2021/12/17 15:35:23;;;;;;;11.80;7.17;;;9.30;99.90;;;;;;5014583;28;20053;-29
2021/12/17 15:37:50;;;;;;;9.40;6.83;;;9.30;99.90;;;;;;4999342;28;20053;-29
2021/12/17 15:40:17;;;;;;;12.60;7.80;;;9.30;99.90;;;;;;5015721;28;20052;-29
2021/12/17 15:42:43;;;;;;;12.93;7.67;;;9.30;99.90;;;;;;5013331;28;20056;-29
2021/12/17 15:45:10;;;;;;;15.03;7.20;;;9.30;99.90;;;;;;5013367;28;20045;-29
2021/12/17 15:47:36;;;;;;;12.00;7.67;;;9.30;99.90;;;;;;4994942;28;20404;-29
2021/12/17 15:50:04;;;;;;;16.63;8.63;;;9.30;99.90;;;;;;5008760;28;20342;-29
2021/12/17 15:52:35;;;;;;;17.07;8.20;;;9.20;99.90;;;;;;5009589;28;20056;-29
2021/12/17 15:55:01;;;;;;;14.27;8.55;;;9.20;99.90;;;;;;5011882;28;20095;-29
2021/12/17 15:57:26;;;;;;;14.77;8.80;;;9.20;99.90;;;;;;4995798;28;20205;-29
2021/12/17 15:59:54;;;;;;;19.30;9.67;;;9.20;99.90;;;;;;5008945;28;20484;-29
2021/12/17 16:02:20;;;;;;;17.33;8.60;;;9.20;99.90;;;;;;5009634;28;20475;-29
2021/12/17 16:04:47;;;;;;;13.60;8.67;;;9.20;99.90;;;;;;5001914;28;20056;-29
2021/12/17 16:07:14;;;;;;;16.17;8.87;;;9.10;99.90;;;;;;4997443;28;20512;-29
2021/12/17 16:23:03;;;;;;;13.63;7.77;;;9.00;99.90;;;;;;5011486;28;20405;-29
2021/12/17 16:25:29;;;;;;;12.60;7.40;;;9.00;99.90;;;;;;5009350;28;20058;-29
2021/12/17 16:27:55;;;;;;;15.23;8.57;;;9.00;99.90;;;;;;4997879;28;20068;-29
2021/12/17 16:30:22;;;;;;;12.80;8.37;;;8.90;99.90;;;;;;5009960;28;20088;-30
2021/12/17 16:32:48;;;;;;;14.90;8.23;;;8.90;99.90;;;;;;5013216;28;20654;-29
2021/12/17 16:35:13;;;;;;;18.27;7.97;;;8.90;99.90;;;;;;5014358;28;20056;-29